Fesco Vladimir — 5BSL2 — position and weather

sailwx.info

Track history (hours):
 
Tides and Currents Weather Stations Pressure Air Temp Water Temp Dewpoint Dewpoint Depression Visibility Wind Speed Wind Dir Waves Ship Positions

Fesco Vladimir

Last reported at 2014-Nov-23 17:23 UTC. Time now 2014-Nov-24 04:06 UTC.
Position N 55°48' E 007°04'.

Length 184 m; draft 9.2 m.

Type: Cargo ship. MMSI: 209777000.

Date/timePositionNaut miles runAvg speedWind from/ knotsBaromVisibWave heightAir tempDewpointWater temp
2014-Nov-23 17:23N 55°48' E 007°04'1315.6
2014-Nov-23 16:32N 55°36' E 006°55'1515.1
2014-Nov-23 15:33N 55°22' E 006°49'1615.7
2014-Nov-23 14:33N 55°07' E 006°57'1615.7
2014-Nov-23 13:33N 54°52' E 007°04'1616.0
2014-Nov-23 12:34N 54°36' E 007°12'1615.7
2014-Nov-23 11:33N 54°23' E 007°26'1615.7
2014-Nov-23 10:33N 54°10' E 007°42'1514.8
2014-Nov-23 09:33N 54°02' E 008°02'1312.5
2014-Nov-23 08:33N 53°59' E 008°23'1313.4
2014-Nov-23 07:33N 53°53' E 008°43'1514.9
2014-Nov-23 06:33N 53°53' E 009°08'1515.2
2014-Nov-23 05:33N 53°43' E 009°28'1414.3
2014-Nov-23 04:33N 53°34' E 009°46'5 5.1
2014-Nov-23 03:28N 53°32' E 009°55'0 0.0
2014-Nov-23 02:31N 53°32' E 009°55'0 0.0
2014-Nov-23 01:31N 53°32' E 009°55'0 0.0
2014-Nov-23 00:31N 53°32' E 009°55'0 0.0
2014-Nov-22 23:31N 53°32' E 009°55'0 0.0
2014-Nov-22 22:28N 53°32' E 009°55'0 0.0
2014-Nov-22 21:28N 53°32' E 009°55'0 0.0
2014-Nov-22 20:28N 53°32' E 009°55'0 0.0
2014-Nov-22 19:31N 53°32' E 009°55'0 0.0
2014-Nov-22 18:31N 53°32' E 009°55'0 0.0
2014-Nov-22 17:31N 53°32' E 009°55'0 0.0
2014-Nov-22 16:31N 53°32' E 009°55'0 0.0
2014-Nov-22 15:31N 53°32' E 009°55'0 0.0
2014-Nov-22 14:31N 53°32' E 009°55'0 0.0
2014-Nov-22 13:31N 53°32' E 009°55'0 0.0
2014-Nov-22 12:28N 53°32' E 009°55'0 0.1
2014-Nov-22 11:34N 53°32' E 009°55'9 8.6
2014-Nov-22 10:34N 53°34' E 009°41'1514.5
2014-Nov-22 09:33N 53°45' E 009°25'1313.0
2014-Nov-22 08:33N 53°53' E 009°07'1313.2
2014-Nov-22 07:33N 53°51' E 008°45'1313.1
2014-Nov-22 06:33N 53°59' E 008°27'1413.8
2014-Nov-22 05:34N 54°00' E 008°03'4 3.9
2014-Nov-22 04:33N 54°02' E 008°09'0 0.0
2014-Nov-22 03:33N 54°02' E 008°09'0 0.0
2014-Nov-22 02:33N 54°02' E 008°09'0 0.0
2014-Nov-22 01:33N 54°02' E 008°09'0 0.0
2014-Nov-22 00:33N 54°02' E 008°09'0 0.0
2014-Nov-21 23:33N 54°02' E 008°09'0 0.0
2014-Nov-21 22:33N 54°02' E 008°09'0 0.1
2014-Nov-21 21:33N 54°02' E 008°09'0 0.1
2014-Nov-21 20:33N 54°02' E 008°09'0 0.0
2014-Nov-21 19:33N 54°02' E 008°09'2 1.6
2014-Nov-21 18:33N 54°02' E 008°07'1110.7
2014-Nov-21 17:33N 53°59' E 008°24'9 9.3
2014-Nov-21 16:33N 53°56' E 008°39'1111.2
2014-Nov-21 15:34N 53°59' E 008°21'8 8.0
2014-Nov-21 14:33N 54°02' E 008°08'0 0.4
2014-Nov-21 13:33N 54°02' E 008°09'0 0.0
2014-Nov-21 12:33N 54°02' E 008°09'1 0.8
2014-Nov-21 11:33N 54°02' E 008°07'9 9.0
2014-Nov-21 10:33N 53°58' E 007°54'1313.0
2014-Nov-21 09:33N 53°55' E 007°32'1313.3
2014-Nov-21 08:32N 53°52' E 007°10'1615.4
2014-Nov-21 07:30N 53°48' E 006°44'1516.0
2014-Nov-21 06:33N 53°44' E 006°19'1616.0
2014-Nov-21 05:34N 53°39' E 005°54'1616.2
2014-Nov-21 04:34N 53°34' E 005°28'1616.2
2014-Nov-21 03:33N 53°28' E 005°02'1615.9
2014-Nov-21 02:34N 53°20' E 004°39'1716.5
2014-Nov-21 01:34N 53°06' E 004°25'1616.1
2014-Nov-21 00:33N 52°52' E 004°13'1615.5
2014-Nov-20 23:34N 52°38' E 004°01'1514.9
2014-Nov-20 22:34N 52°24' E 003°53'1514.8
2014-Nov-20 21:34N 52°09' E 003°54'1010.3
2014-Nov-20 20:34N 51°60' E 004°02'3 2.5
2014-Nov-20 19:31N 51°58' E 004°03'0 0.0
2014-Nov-20 18:32N 51°58' E 004°03'0 0.0
2014-Nov-20 17:28N 51°58' E 004°03'0 0.0
2014-Nov-20 16:31N 51°58' E 004°03'0 0.0
2014-Nov-20 15:31N 51°58' E 004°03'0 0.0
2014-Nov-20 14:31N 51°58' E 004°03'0 0.0
2014-Nov-20 13:31N 51°58' E 004°03'0 0.0
2014-Nov-20 12:34N 51°58' E 004°03'0 0.2
2014-Nov-20 11:31N 51°58' E 004°03'0 0.0
2014-Nov-20 10:28N 51°58' E 004°03'0 0.0
2014-Nov-20 09:31N 51°58' E 004°03'0 0.0
2014-Nov-20 08:31N 51°58' E 004°03'0 0.0
2014-Nov-20 07:31N 51°58' E 004°03'0 0.0
2014-Nov-20 06:31N 51°58' E 004°03'0 0.0
2014-Nov-20 05:31N 51°58' E 004°03'0 0.0
2014-Nov-20 04:31N 51°58' E 004°03'0 0.0
2014-Nov-20 03:31N 51°58' E 004°03'0 0.0
2014-Nov-20 02:28N 51°58' E 004°03'0 0.0
2014-Nov-20 01:31N 51°58' E 004°03'0 0.0
2014-Nov-20 00:31N 51°58' E 004°03'0 0.0
2014-Nov-19 23:31N 51°58' E 004°03'0 0.0
2014-Nov-19 22:31N 51°58' E 004°03'0 0.0
2014-Nov-19 21:31N 51°58' E 004°03'0 0.0
2014-Nov-19 20:31N 51°58' E 004°03'0 0.0
2014-Nov-19 19:31N 51°58' E 004°03'0 0.0
2014-Nov-19 18:31N 51°58' E 004°03'0 0.0
2014-Nov-19 17:31N 51°58' E 004°03'0 0.0
2014-Nov-19 16:31N 51°58' E 004°03'0 0.0
2014-Nov-19 15:28N 51°58' E 004°03'0 0.0
2014-Nov-19 14:31N 51°58' E 004°03'0 0.0
2014-Nov-19 13:28N 51°58' E 004°03'0 0.0
2014-Nov-19 12:31N 51°58' E 004°03'0 0.0
2014-Nov-19 11:31N 51°58' E 004°03'0 0.0
2014-Nov-19 10:31N 51°58' E 004°03'0 0.0
2014-Nov-19 09:31N 51°58' E 004°03'0 0.0
2014-Nov-19 08:31N 51°58' E 004°03'0 0.0
2014-Nov-19 07:19N 51°58' E 004°03'0 0.0
2014-Nov-19 06:31N 51°58' E 004°03'0 0.0
2014-Nov-19 05:31N 51°58' E 004°03'0 0.0
2014-Nov-19 04:31N 51°58' E 004°03'0 0.0
2014-Nov-19 03:31N 51°58' E 004°03'0 0.0
2014-Nov-19 02:31N 51°58' E 004°03'0 0.0
2014-Nov-19 01:31N 51°58' E 004°03'0 0.0
2014-Nov-19 00:31N 51°58' E 004°03'0 0.0
2014-Nov-18 23:31N 51°58' E 004°03'0 0.0
2014-Nov-18 22:31N 51°58' E 004°03'0 0.0
2014-Nov-18 21:28N 51°58' E 004°03'0 0.0
2014-Nov-18 20:31N 51°58' E 004°03'0 0.0
2014-Nov-18 19:31N 51°58' E 004°03'0 0.0
2014-Nov-18 18:31N 51°58' E 004°03'0 0.0
2014-Nov-18 17:31N 51°58' E 004°03'0 0.0
2014-Nov-18 16:31N 51°58' E 004°03'0 0.0
2014-Nov-18 15:31N 51°58' E 004°03'0 0.0
2014-Nov-18 14:31N 51°58' E 004°03'0 0.0
2014-Nov-18 13:31N 51°58' E 004°03'0 0.0
2014-Nov-18 12:31N 51°58' E 004°03'0 0.0
2014-Nov-18 11:31N 51°58' E 004°03'0 0.0
2014-Nov-18 10:31N 51°58' E 004°03'0 0.0
2014-Nov-18 09:31N 51°58' E 004°03'0 0.0
2014-Nov-18 08:31N 51°58' E 004°03'0 0.0
2014-Nov-18 07:31N 51°58' E 004°03'0 0.0
2014-Nov-18 06:31N 51°58' E 004°03'0 0.0
2014-Nov-18 05:31N 51°58' E 004°03'0 0.0
2014-Nov-18 04:31N 51°58' E 004°03'0 0.0
2014-Nov-18 03:31N 51°58' E 004°03'0 0.0
2014-Nov-18 02:31N 51°58' E 004°03'0 0.0
2014-Nov-18 01:31N 51°58' E 004°03'0 0.0
2014-Nov-18 00:31N 51°58' E 004°03'0 0.0
2014-Nov-17 23:31N 51°58' E 004°03'0 0.0
2014-Nov-17 22:31N 51°58' E 004°03'0 0.0
2014-Nov-17 21:31N 51°58' E 004°03'0 0.0
2014-Nov-17 20:28N 51°58' E 004°03'0 0.0
2014-Nov-17 19:31N 51°58' E 004°03'0 0.0
2014-Nov-17 18:31N 51°58' E 004°03'0 0.0
2014-Nov-17 17:31N 51°58' E 004°03'0 0.0
2014-Nov-17 16:31N 51°58' E 004°03'0 0.0
2014-Nov-17 15:31N 51°58' E 004°03'0 0.0
2014-Nov-17 14:31N 51°58' E 004°03'0 0.0
2014-Nov-17 13:31N 51°58' E 004°03'0 0.0
2014-Nov-17 12:31N 51°58' E 004°03'0 0.0
2014-Nov-17 11:31N 51°58' E 004°03'0 0.0
2014-Nov-17 10:31N 51°58' E 004°03'0 0.0
2014-Nov-17 09:31N 51°58' E 004°03'0 0.0
2014-Nov-17 08:31N 51°58' E 004°03'0 0.0
2014-Nov-17 07:31N 51°58' E 004°03'1 0.5
2014-Nov-17 06:33N 51°58' E 004°04'0 0.0
2014-Nov-17 05:32N 51°58' E 004°04'0 0.0
2014-Nov-17 04:32N 51°58' E 004°04'0 0.0
2014-Nov-17 03:33N 51°58' E 004°04'0 0.0
2014-Nov-17 02:33N 51°58' E 004°04'0 0.0
2014-Nov-17 01:33N 51°58' E 004°04'0 0.0
2014-Nov-17 00:33N 51°58' E 004°04'0 0.0
2014-Nov-16 23:33N 51°58' E 004°04'0 0.0
2014-Nov-16 22:33N 51°58' E 004°04'0 0.0
2014-Nov-16 21:33N 51°58' E 004°04'0 0.0
2014-Nov-16 20:33N 51°58' E 004°04'0 0.1
2014-Nov-16 19:34N 51°58' E 004°04'6 5.5
2014-Nov-16 18:33N 51°60' E 003°56'1414.3
2014-Nov-16 17:33N 51°56' E 003°34'4 1.8
2014-Nov-16 15:28N 51°54' E 003°29'0 0.0
2014-Nov-16 14:31N 51°54' E 003°29'0 0.0
2014-Nov-16 13:25N 51°54' E 003°29'0 0.1
2014-Nov-16 12:25N 51°54' E 003°29'0 0.0
2014-Nov-16 11:13N 51°54' E 003°29'0 0.1
2014-Nov-16 10:31N 51°54' E 003°29'0 0.0
2014-Nov-16 08:13N 51°54' E 003°29'0 0.0
2014-Nov-16 07:22N 51°54' E 003°29'0 0.0
2014-Nov-16 06:31N 51°54' E 003°29'0 0.1
2014-Nov-16 05:19N 51°54' E 003°29'0 0.1
2014-Nov-16 04:31N 51°54' E 003°29'0 0.0
2014-Nov-16 03:31N 51°54' E 003°29'0 0.0
2014-Nov-16 02:31N 51°54' E 003°29'0 0.1
2014-Nov-16 01:31N 51°54' E 003°29'0 0.1
2014-Nov-16 00:31N 51°54' E 003°29'0 0.0
2014-Nov-15 23:31N 51°54' E 003°29'0 0.0
2014-Nov-15 22:25N 51°54' E 003°29'0 0.0
2014-Nov-15 21:31N 51°54' E 003°29'0 0.0
2014-Nov-15 20:28N 51°54' E 003°29'0 0.0
2014-Nov-15 19:28N 51°54' E 003°29'0 0.0
2014-Nov-15 18:10N 51°54' E 003°29'0 0.1
2014-Nov-15 17:28N 51°54' E 003°29'0 0.1
2014-Nov-15 16:28N 51°54' E 003°29'0 0.1
2014-Nov-15 15:22N 51°54' E 003°29'0 0.2
2014-Nov-15 14:10N 51°54' E 003°29'0 0.0
2014-Nov-15 13:22N 51°54' E 003°29'0 0.0
2014-Nov-15 12:28N 51°54' E 003°29'0 0.0
2014-Nov-15 11:19N 51°54' E 003°29'0 0.0
2014-Nov-15 10:19N 51°54' E 003°29'0 0.0
2014-Nov-15 09:10N 51°54' E 003°29'0 0.0
2014-Nov-15 08:25N 51°54' E 003°29'0 0.0
2014-Nov-15 07:22N 51°54' E 003°29'0 0.0
2014-Nov-15 06:19N 51°54' E 003°29'0 0.0
2014-Nov-15 05:31N 51°54' E 003°29'0 0.2
2014-Nov-15 04:31N 51°54' E 003°29'0 0.0
2014-Nov-15 03:28N 51°54' E 003°29'0 0.0
2014-Nov-15 02:25N 51°54' E 003°29'0 0.0
2014-Nov-15 01:31N 51°54' E 003°29'0 0.1
2014-Nov-15 00:19N 51°54' E 003°29'0 0.1
2014-Nov-14 23:31N 51°54' E 003°29'0 0.0
2014-Nov-14 22:28N 51°54' E 003°29'0 0.0
2014-Nov-14 21:22N 51°54' E 003°29'0 0.0
2014-Nov-14 20:19N 51°54' E 003°29'0 0.0
2014-Nov-14 19:19N 51°54' E 003°29'0 0.0
2014-Nov-14 16:28N 51°54' E 003°29'0 0.0
2014-Nov-14 15:07N 51°54' E 003°29'0 0.0
2014-Nov-14 14:31N 51°54' E 003°29'0 0.0
2014-Nov-14 10:13N 51°54' E 003°29'4 5.6
2014-Nov-14 09:34N 51°55' E 003°23'3014.1
2014-Nov-14 07:27N 51°45' E 002°37'1516.6
2014-Nov-14 06:33N 51°34' E 002°22'3316.6
2014-Nov-14 04:33N 51°08' E 001°49'1817.5
2014-Nov-14 03:33N 50°55' E 001°30'2316.8
2014-Nov-14 02:11N 50°36' E 001°09'1715.7
2014-Nov-14 01:06N 50°28' E 000°46'915.8
2014-Nov-14 00:34N 50°27' E 000°33'4713.7
2014-Nov-13 21:08N 50°31' W 000°41'1014.7
2014-Nov-13 20:25N 50°38' W 000°52'1011.6
2014-Nov-13 19:34N 50°44' W 001°05'1211.7
2014-Nov-13 18:33N 50°51' W 001°20'6 6.0
2014-Nov-13 17:33N 50°54' W 001°28'  
Track history (hours):
 
Tides and Currents Weather Stations Pressure Air Temp Water Temp Dewpoint Dewpoint Depression Visibility Wind Speed Wind Dir Waves Ship Positions

Fesco Vladimir

Last reported at 2014-Nov-23 17:23 UTC. Time now 2014-Nov-24 04:06 UTC.
Position N 55°48' E 007°04'.

Length 184 m; draft 9.2 m.

Type: Cargo ship. MMSI: 209777000.

Date/timePositionNaut miles runAvg speedWind from/ knotsBaromVisibWave heightAir tempDewpointWater temp
2014-Nov-23 17:23N 55°48' E 007°04'1315.6
2014-Nov-23 16:32N 55°36' E 006°55'1515.1
2014-Nov-23 15:33N 55°22' E 006°49'1615.7
2014-Nov-23 14:33N 55°07' E 006°57'1615.7
2014-Nov-23 13:33N 54°52' E 007°04'1616.0
2014-Nov-23 12:34N 54°36' E 007°12'1615.7
2014-Nov-23 11:33N 54°23' E 007°26'1615.7
2014-Nov-23 10:33N 54°10' E 007°42'1514.8
2014-Nov-23 09:33N 54°02' E 008°02'1312.5
2014-Nov-23 08:33N 53°59' E 008°23'1313.4
2014-Nov-23 07:33N 53°53' E 008°43'1514.9
2014-Nov-23 06:33N 53°53' E 009°08'1515.2
2014-Nov-23 05:33N 53°43' E 009°28'1414.3
2014-Nov-23 04:33N 53°34' E 009°46'5 5.1
2014-Nov-23 03:28N 53°32' E 009°55'0 0.0
2014-Nov-23 02:31N 53°32' E 009°55'0 0.0
2014-Nov-23 01:31N 53°32' E 009°55'0 0.0
2014-Nov-23 00:31N 53°32' E 009°55'0 0.0
2014-Nov-22 23:31N 53°32' E 009°55'0 0.0
2014-Nov-22 22:28N 53°32' E 009°55'0 0.0
2014-Nov-22 21:28N 53°32' E 009°55'0 0.0
2014-Nov-22 20:28N 53°32' E 009°55'0 0.0
2014-Nov-22 19:31N 53°32' E 009°55'0 0.0
2014-Nov-22 18:31N 53°32' E 009°55'0 0.0
2014-Nov-22 17:31N 53°32' E 009°55'0 0.0
2014-Nov-22 16:31N 53°32' E 009°55'0 0.0
2014-Nov-22 15:31N 53°32' E 009°55'0 0.0
2014-Nov-22 14:31N 53°32' E 009°55'0 0.0
2014-Nov-22 13:31N 53°32' E 009°55'0 0.0
2014-Nov-22 12:28N 53°32' E 009°55'0 0.1
2014-Nov-22 11:34N 53°32' E 009°55'9 8.6
2014-Nov-22 10:34N 53°34' E 009°41'1514.5
2014-Nov-22 09:33N 53°45' E 009°25'1313.0
2014-Nov-22 08:33N 53°53' E 009°07'1313.2
2014-Nov-22 07:33N 53°51' E 008°45'1313.1
2014-Nov-22 06:33N 53°59' E 008°27'1413.8
2014-Nov-22 05:34N 54°00' E 008°03'4 3.9
2014-Nov-22 04:33N 54°02' E 008°09'0 0.0
2014-Nov-22 03:33N 54°02' E 008°09'0 0.0
2014-Nov-22 02:33N 54°02' E 008°09'0 0.0
2014-Nov-22 01:33N 54°02' E 008°09'0 0.0
2014-Nov-22 00:33N 54°02' E 008°09'0 0.0
2014-Nov-21 23:33N 54°02' E 008°09'0 0.0
2014-Nov-21 22:33N 54°02' E 008°09'0 0.1
2014-Nov-21 21:33N 54°02' E 008°09'0 0.1
2014-Nov-21 20:33N 54°02' E 008°09'0 0.0
2014-Nov-21 19:33N 54°02' E 008°09'2 1.6
2014-Nov-21 18:33N 54°02' E 008°07'1110.7
2014-Nov-21 17:33N 53°59' E 008°24'9 9.3
2014-Nov-21 16:33N 53°56' E 008°39'1111.2
2014-Nov-21 15:34N 53°59' E 008°21'8 8.0
2014-Nov-21 14:33N 54°02' E 008°08'0 0.4
2014-Nov-21 13:33N 54°02' E 008°09'0 0.0
2014-Nov-21 12:33N 54°02' E 008°09'1 0.8
2014-Nov-21 11:33N 54°02' E 008°07'9 9.0
2014-Nov-21 10:33N 53°58' E 007°54'1313.0
2014-Nov-21 09:33N 53°55' E 007°32'1313.3
2014-Nov-21 08:32N 53°52' E 007°10'1615.4
2014-Nov-21 07:30N 53°48' E 006°44'1516.0
2014-Nov-21 06:33N 53°44' E 006°19'1616.0
2014-Nov-21 05:34N 53°39' E 005°54'1616.2
2014-Nov-21 04:34N 53°34' E 005°28'1616.2
2014-Nov-21 03:33N 53°28' E 005°02'1615.9
2014-Nov-21 02:34N 53°20' E 004°39'1716.5
2014-Nov-21 01:34N 53°06' E 004°25'1616.1
2014-Nov-21 00:33N 52°52' E 004°13'1615.5
2014-Nov-20 23:34N 52°38' E 004°01'1514.9
2014-Nov-20 22:34N 52°24' E 003°53'1514.8
2014-Nov-20 21:34N 52°09' E 003°54'1010.3
2014-Nov-20 20:34N 51°60' E 004°02'3 2.5
2014-Nov-20 19:31N 51°58' E 004°03'0 0.0
2014-Nov-20 18:32N 51°58' E 004°03'0 0.0
2014-Nov-20 17:28N 51°58' E 004°03'0 0.0
2014-Nov-20 16:31N 51°58' E 004°03'0 0.0
2014-Nov-20 15:31N 51°58' E 004°03'0 0.0
2014-Nov-20 14:31N 51°58' E 004°03'0 0.0
2014-Nov-20 13:31N 51°58' E 004°03'0 0.0
2014-Nov-20 12:34N 51°58' E 004°03'0 0.2
2014-Nov-20 11:31N 51°58' E 004°03'0 0.0
2014-Nov-20 10:28N 51°58' E 004°03'0 0.0
2014-Nov-20 09:31N 51°58' E 004°03'0 0.0
2014-Nov-20 08:31N 51°58' E 004°03'0 0.0
2014-Nov-20 07:31N 51°58' E 004°03'0 0.0
2014-Nov-20 06:31N 51°58' E 004°03'0 0.0
2014-Nov-20 05:31N 51°58' E 004°03'0 0.0
2014-Nov-20 04:31N 51°58' E 004°03'0 0.0
2014-Nov-20 03:31N 51°58' E 004°03'0 0.0
2014-Nov-20 02:28N 51°58' E 004°03'0 0.0
2014-Nov-20 01:31N 51°58' E 004°03'0 0.0
2014-Nov-20 00:31N 51°58' E 004°03'0 0.0
2014-Nov-19 23:31N 51°58' E 004°03'0 0.0
2014-Nov-19 22:31N 51°58' E 004°03'0 0.0
2014-Nov-19 21:31N 51°58' E 004°03'0 0.0
2014-Nov-19 20:31N 51°58' E 004°03'0 0.0
2014-Nov-19 19:31N 51°58' E 004°03'0 0.0
2014-Nov-19 18:31N 51°58' E 004°03'0 0.0
2014-Nov-19 17:31N 51°58' E 004°03'0 0.0
2014-Nov-19 16:31N 51°58' E 004°03'0 0.0
2014-Nov-19 15:28N 51°58' E 004°03'0 0.0
2014-Nov-19 14:31N 51°58' E 004°03'0 0.0
2014-Nov-19 13:28N 51°58' E 004°03'0 0.0
2014-Nov-19 12:31N 51°58' E 004°03'0 0.0
2014-Nov-19 11:31N 51°58' E 004°03'0 0.0
2014-Nov-19 10:31N 51°58' E 004°03'0 0.0
2014-Nov-19 09:31N 51°58' E 004°03'0 0.0
2014-Nov-19 08:31N 51°58' E 004°03'0 0.0
2014-Nov-19 07:19N 51°58' E 004°03'0 0.0
2014-Nov-19 06:31N 51°58' E 004°03'0 0.0
2014-Nov-19 05:31N 51°58' E 004°03'0 0.0
2014-Nov-19 04:31N 51°58' E 004°03'0 0.0
2014-Nov-19 03:31N 51°58' E 004°03'0 0.0
2014-Nov-19 02:31N 51°58' E 004°03'0 0.0
2014-Nov-19 01:31N 51°58' E 004°03'0 0.0
2014-Nov-19 00:31N 51°58' E 004°03'0 0.0
2014-Nov-18 23:31N 51°58' E 004°03'0 0.0
2014-Nov-18 22:31N 51°58' E 004°03'0 0.0
2014-Nov-18 21:28N 51°58' E 004°03'0 0.0
2014-Nov-18 20:31N 51°58' E 004°03'0 0.0
2014-Nov-18 19:31N 51°58' E 004°03'0 0.0
2014-Nov-18 18:31N 51°58' E 004°03'0 0.0
2014-Nov-18 17:31N 51°58' E 004°03'0 0.0
2014-Nov-18 16:31N 51°58' E 004°03'0 0.0
2014-Nov-18 15:31N 51°58' E 004°03'0 0.0
2014-Nov-18 14:31N 51°58' E 004°03'0 0.0
2014-Nov-18 13:31N 51°58' E 004°03'0 0.0
2014-Nov-18 12:31N 51°58' E 004°03'0 0.0
2014-Nov-18 11:31N 51°58' E 004°03'0 0.0
2014-Nov-18 10:31N 51°58' E 004°03'0 0.0
2014-Nov-18 09:31N 51°58' E 004°03'0 0.0
2014-Nov-18 08:31N 51°58' E 004°03'0 0.0
2014-Nov-18 07:31N 51°58' E 004°03'0 0.0
2014-Nov-18 06:31N 51°58' E 004°03'0 0.0
2014-Nov-18 05:31N 51°58' E 004°03'0 0.0
2014-Nov-18 04:31N 51°58' E 004°03'0 0.0
2014-Nov-18 03:31N 51°58' E 004°03'0 0.0
2014-Nov-18 02:31N 51°58' E 004°03'0 0.0
2014-Nov-18 01:31N 51°58' E 004°03'0 0.0
2014-Nov-18 00:31N 51°58' E 004°03'0 0.0
2014-Nov-17 23:31N 51°58' E 004°03'0 0.0
2014-Nov-17 22:31N 51°58' E 004°03'0 0.0
2014-Nov-17 21:31N 51°58' E 004°03'0 0.0
2014-Nov-17 20:28N 51°58' E 004°03'0 0.0
2014-Nov-17 19:31N 51°58' E 004°03'0 0.0
2014-Nov-17 18:31N 51°58' E 004°03'0 0.0
2014-Nov-17 17:31N 51°58' E 004°03'0 0.0
2014-Nov-17 16:31N 51°58' E 004°03'0 0.0
2014-Nov-17 15:31N 51°58' E 004°03'0 0.0
2014-Nov-17 14:31N 51°58' E 004°03'0 0.0
2014-Nov-17 13:31N 51°58' E 004°03'0 0.0
2014-Nov-17 12:31N 51°58' E 004°03'0 0.0
2014-Nov-17 11:31N 51°58' E 004°03'0 0.0
2014-Nov-17 10:31N 51°58' E 004°03'0 0.0
2014-Nov-17 09:31N 51°58' E 004°03'0 0.0
2014-Nov-17 08:31N 51°58' E 004°03'0 0.0
2014-Nov-17 07:31N 51°58' E 004°03'1 0.5
2014-Nov-17 06:33N 51°58' E 004°04'0 0.0
2014-Nov-17 05:32N 51°58' E 004°04'0 0.0
2014-Nov-17 04:32N 51°58' E 004°04'0 0.0
2014-Nov-17 03:33N 51°58' E 004°04'0 0.0
2014-Nov-17 02:33N 51°58' E 004°04'0 0.0
2014-Nov-17 01:33N 51°58' E 004°04'0 0.0
2014-Nov-17 00:33N 51°58' E 004°04'0 0.0
2014-Nov-16 23:33N 51°58' E 004°04'0 0.0
2014-Nov-16 22:33N 51°58' E 004°04'0 0.0
2014-Nov-16 21:33N 51°58' E 004°04'0 0.0
2014-Nov-16 20:33N 51°58' E 004°04'0 0.1
2014-Nov-16 19:34N 51°58' E 004°04'6 5.5
2014-Nov-16 18:33N 51°60' E 003°56'1414.3
2014-Nov-16 17:33N 51°56' E 003°34'4 1.8
2014-Nov-16 15:28N 51°54' E 003°29'0 0.0
2014-Nov-16 14:31N 51°54' E 003°29'0 0.0
2014-Nov-16 13:25N 51°54' E 003°29'0 0.1
2014-Nov-16 12:25N 51°54' E 003°29'0 0.0
2014-Nov-16 11:13N 51°54' E 003°29'0 0.1
2014-Nov-16 10:31N 51°54' E 003°29'0 0.0
2014-Nov-16 08:13N 51°54' E 003°29'0 0.0
2014-Nov-16 07:22N 51°54' E 003°29'0 0.0
2014-Nov-16 06:31N 51°54' E 003°29'0 0.1
2014-Nov-16 05:19N 51°54' E 003°29'0 0.1
2014-Nov-16 04:31N 51°54' E 003°29'0 0.0
2014-Nov-16 03:31N 51°54' E 003°29'0 0.0
2014-Nov-16 02:31N 51°54' E 003°29'0 0.1
2014-Nov-16 01:31N 51°54' E 003°29'0 0.1
2014-Nov-16 00:31N 51°54' E 003°29'0 0.0
2014-Nov-15 23:31N 51°54' E 003°29'0 0.0
2014-Nov-15 22:25N 51°54' E 003°29'0 0.0
2014-Nov-15 21:31N 51°54' E 003°29'0 0.0
2014-Nov-15 20:28N 51°54' E 003°29'0 0.0
2014-Nov-15 19:28N 51°54' E 003°29'0 0.0
2014-Nov-15 18:10N 51°54' E 003°29'0 0.1
2014-Nov-15 17:28N 51°54' E 003°29'0 0.1
2014-Nov-15 16:28N 51°54' E 003°29'0 0.1
2014-Nov-15 15:22N 51°54' E 003°29'0 0.2
2014-Nov-15 14:10N 51°54' E 003°29'0 0.0
2014-Nov-15 13:22N 51°54' E 003°29'0 0.0
2014-Nov-15 12:28N 51°54' E 003°29'0 0.0
2014-Nov-15 11:19N 51°54' E 003°29'0 0.0
2014-Nov-15 10:19N 51°54' E 003°29'0 0.0
2014-Nov-15 09:10N 51°54' E 003°29'0 0.0
2014-Nov-15 08:25N 51°54' E 003°29'0 0.0
2014-Nov-15 07:22N 51°54' E 003°29'0 0.0
2014-Nov-15 06:19N 51°54' E 003°29'0 0.0
2014-Nov-15 05:31N 51°54' E 003°29'0 0.2
2014-Nov-15 04:31N 51°54' E 003°29'0 0.0
2014-Nov-15 03:28N 51°54' E 003°29'0 0.0
2014-Nov-15 02:25N 51°54' E 003°29'0 0.0
2014-Nov-15 01:31N 51°54' E 003°29'0 0.1
2014-Nov-15 00:19N 51°54' E 003°29'0 0.1
2014-Nov-14 23:31N 51°54' E 003°29'0 0.0
2014-Nov-14 22:28N 51°54' E 003°29'0 0.0
2014-Nov-14 21:22N 51°54' E 003°29'0 0.0
2014-Nov-14 20:19N 51°54' E 003°29'0 0.0
2014-Nov-14 19:19N 51°54' E 003°29'0 0.0
2014-Nov-14 16:28N 51°54' E 003°29'0 0.0
2014-Nov-14 15:07N 51°54' E 003°29'0 0.0
2014-Nov-14 14:31N 51°54' E 003°29'0 0.0
2014-Nov-14 10:13N 51°54' E 003°29'4 5.6
2014-Nov-14 09:34N 51°55' E 003°23'3014.1
2014-Nov-14 07:27N 51°45' E 002°37'1516.6
2014-Nov-14 06:33N 51°34' E 002°22'3316.6
2014-Nov-14 04:33N 51°08' E 001°49'1817.5
2014-Nov-14 03:33N 50°55' E 001°30'2316.8
2014-Nov-14 02:11N 50°36' E 001°09'1715.7
2014-Nov-14 01:06N 50°28' E 000°46'915.8
2014-Nov-14 00:34N 50°27' E 000°33'4713.7
2014-Nov-13 21:08N 50°31' W 000°41'1014.7
2014-Nov-13 20:25N 50°38' W 000°52'1011.6
2014-Nov-13 19:34N 50°44' W 001°05'1211.7
2014-Nov-13 18:33N 50°51' W 001°20'6 6.0
2014-Nov-13 17:33N 50°54' W 001°28'  

Dump ship's entire track history